createdAt,value
2023-01-26T00:26:37.962Z,1.37
2023-01-26T00:55:24.892Z,1.29
2023-01-26T01:24:05.357Z,1.44
2023-01-26T01:52:46.207Z,1.45
2023-01-26T02:21:17.311Z,1.06
2023-01-26T02:49:45.946Z,1.13
2023-01-26T03:18:29.913Z,1.1
2023-01-26T03:47:04.587Z,1.26
2023-01-26T04:15:54.113Z,1.13
2023-01-26T04:44:43.899Z,0.95
2023-01-26T05:13:29.916Z,1
2023-01-26T05:42:07.737Z,1
2023-01-26T08:21:51.745Z,1.05
2023-01-26T09:18:54.176Z,1.13
2023-01-26T09:47:32.446Z,1.11
2023-01-26T10:16:16.444Z,1.6
2023-01-26T11:13:49.043Z,1.41
2023-01-26T11:42:23.531Z,1.64
2023-01-26T12:10:40.973Z,1.38
2023-01-26T12:39:00.542Z,1.32
2023-01-26T13:07:13.073Z,1.13
2023-01-26T13:35:51.156Z,1.2
2023-01-26T14:04:11.769Z,1.03
2023-01-26T14:32:31.794Z,0.84
2023-01-26T15:00:48.561Z,1.02
2023-01-26T15:29:02.127Z,0.93
2023-01-26T15:57:20.024Z,0.64
2023-01-26T16:25:56.923Z,0.67
2023-01-26T16:54:15.734Z,0.47
2023-01-26T17:22:36.325Z,0.4
2023-01-26T17:51:01.365Z,0.42
2023-01-26T18:19:29.464Z,0.23
2023-01-26T18:47:42.929Z,0.15
2023-01-26T19:16:09.645Z,-0.09
2023-01-26T19:44:29.158Z,0.01
2023-01-26T20:12:55.327Z,0.03
2023-01-26T20:41:35.539Z,-0.05
2023-01-26T21:10:06.256Z,0.05
2023-01-26T21:38:25.844Z,-0.09
2023-01-26T22:07:02.570Z,-0.05
2023-01-26T22:35:31.305Z,-0.47
2023-01-26T23:04:02.327Z,-0.84
2023-01-26T23:32:23.922Z,-0.41
